createdAt,value
2023-05-14T00:00:11.336Z,0.00
2023-05-14T00:01:11.266Z,0.00
2023-05-14T00:02:11.383Z,0.00
2023-05-14T00:03:11.603Z,0.00
2023-05-14T00:04:11.167Z,0.00
2023-05-14T00:05:11.075Z,0.00
2023-05-14T00:06:11.041Z,0.00
2023-05-14T00:07:10.910Z,0.00
2023-05-14T00:08:10.857Z,0.00
2023-05-14T00:09:10.779Z,0.00
2023-05-14T00:10:10.739Z,0.00
2023-05-14T00:11:10.684Z,0.00
2023-05-14T00:12:11.474Z,0.00
2023-05-14T00:13:10.537Z,0.00
2023-05-14T00:14:10.531Z,0.00
2023-05-14T00:15:10.456Z,0.00
2023-05-14T00:16:10.398Z,0.00
2023-05-14T00:17:10.292Z,0.00
2023-05-14T00:18:10.205Z,0.00
2023-05-14T00:19:10.290Z,0.00
2023-05-14T00:20:10.140Z,0.00
2023-05-14T00:21:10.096Z,0.00
2023-05-14T00:22:10.003Z,0.00
2023-05-14T00:23:10.000Z,0.00
2023-05-14T00:24:09.845Z,0.00
2023-05-14T00:25:09.796Z,0.00
2023-05-14T00:26:09.752Z,0.00
2023-05-14T00:27:09.648Z,0.00
2023-05-14T00:28:09.680Z,0.00
2023-05-14T00:29:09.602Z,0.00
2023-05-14T00:30:10.249Z,0.00
2023-05-14T00:31:09.452Z,0.00
2023-05-14T00:32:09.355Z,0.00
2023-05-14T00:33:09.420Z,0.00
2023-05-14T00:34:09.270Z,0.00
2023-05-14T00:35:09.191Z,0.00
2023-05-14T00:36:09.152Z,0.00
2023-05-14T00:37:09.035Z,0.00
2023-05-14T00:38:08.998Z,0.00
2023-05-14T00:39:08.936Z,0.00
2023-05-14T00:40:08.870Z,0.00
2023-05-14T00:41:08.867Z,0.00
2023-05-14T00:42:08.722Z,0.00
2023-05-14T00:43:08.711Z,0.00
2023-05-14T00:44:08.621Z,0.00
2023-05-14T00:45:11.017Z,0.00
2023-05-14T00:46:08.565Z,0.00
2023-05-14T00:47:08.486Z,0.00
2023-05-14T00:48:08.436Z,0.00
2023-05-14T00:49:08.422Z,0.00
2023-05-14T00:50:08.278Z,0.00
2023-05-14T00:51:08.200Z,0.00
2023-05-14T00:52:08.157Z,0.00
2023-05-14T00:53:08.061Z,0.00
2023-05-14T00:54:07.986Z,0.00
2023-05-14T00:55:07.959Z,0.00
2023-05-14T00:56:07.901Z,0.00
2023-05-14T00:57:07.778Z,0.00
2023-05-14T00:58:07.691Z,0.00
2023-05-14T00:59:07.721Z,0.00
2023-05-14T01:00:07.646Z,0.00
2023-05-14T01:01:07.569Z,0.00
2023-05-14T01:02:07.523Z,0.00
2023-05-14T01:03:07.451Z,0.00
2023-05-14T01:04:07.427Z,0.00
2023-05-14T01:05:07.311Z,0.00
2023-05-14T01:06:07.205Z,0.00
2023-05-14T01:07:07.187Z,0.00
2023-05-14T01:08:07.099Z,0.00
2023-05-14T01:09:07.060Z,0.00
2023-05-14T01:10:06.940Z,0.00
2023-05-14T01:11:06.998Z,0.00
2023-05-14T01:12:06.833Z,0.00
2023-05-14T01:13:06.801Z,0.00
2023-05-14T01:14:06.812Z,0.00
2023-05-14T01:15:06.641Z,0.00
2023-05-14T01:16:06.591Z,0.00
2023-05-14T01:17:06.584Z,0.00
2023-05-14T01:18:06.525Z,0.00
2023-05-14T01:19:06.579Z,0.00
2023-05-14T01:20:06.363Z,0.00
2023-05-14T01:21:06.246Z,0.00
2023-05-14T01:22:06.219Z,0.00
2023-05-14T01:23:06.170Z,0.00
2023-05-14T01:24:06.112Z,0.00
2023-05-14T01:25:05.999Z,0.00
2023-05-14T01:26:05.968Z,0.00
2023-05-14T01:27:05.894Z,0.00
2023-05-14T01:28:05.866Z,0.00
2023-05-14T01:29:05.865Z,0.00
2023-05-14T01:30:05.720Z,0.00
2023-05-14T01:31:05.684Z,0.00
2023-05-14T01:32:05.713Z,0.00
2023-05-14T01:33:05.587Z,0.00
2023-05-14T01:34:05.515Z,0.00
2023-05-14T01:35:05.371Z,0.00
2023-05-14T01:36:05.388Z,0.00
2023-05-14T01:37:05.354Z,0.00
2023-05-14T01:38:05.252Z,0.00
2023-05-14T01:39:05.953Z,0.00
2023-05-14T01:40:05.117Z,0.00
2023-05-14T01:41:05.134Z,0.00
2023-05-14T01:42:04.979Z,0.00
2023-05-14T01:43:04.989Z,0.00
2023-05-14T01:44:04.824Z,0.00
2023-05-14T01:45:04.841Z,0.00
2023-05-14T01:46:04.837Z,0.00
2023-05-14T01:47:04.645Z,0.00
2023-05-14T01:48:04.655Z,0.00
2023-05-14T01:49:04.509Z,0.00
2023-05-14T01:50:04.423Z,0.00
2023-05-14T01:51:04.553Z,0.00
2023-05-14T01:52:04.407Z,0.00
2023-05-14T01:53:04.294Z,0.00
2023-05-14T01:54:04.204Z,0.00
2023-05-14T01:55:04.197Z,0.00
2023-05-14T01:56:04.096Z,0.00
2023-05-14T01:57:04.069Z,0.00
2023-05-14T01:58:03.986Z,0.00
2023-05-14T01:59:03.950Z,0.00
2023-05-14T02:00:03.914Z,0.00
2023-05-14T02:01:03.804Z,0.00
2023-05-14T02:02:03.726Z,0.00
2023-05-14T02:03:03.617Z,0.00
2023-05-14T02:04:03.629Z,0.00
2023-05-14T02:05:05.523Z,0.00
2023-05-14T02:06:03.447Z,0.00
2023-05-14T02:07:03.454Z,0.00
2023-05-14T02:08:03.322Z,0.00
2023-05-14T02:09:03.256Z,0.00
2023-05-14T02:10:04.444Z,0.00
2023-05-14T02:11:03.949Z,0.00
2023-05-14T02:12:03.757Z,0.00
2023-05-14T02:13:03.039Z,0.00
2023-05-14T02:14:02.963Z,0.00
2023-05-14T02:15:02.955Z,0.00
2023-05-14T02:16:02.941Z,0.00
2023-05-14T02:17:02.767Z,0.00
2023-05-14T02:18:02.739Z,0.00
2023-05-14T02:19:02.669Z,0.00
2023-05-14T02:20:02.557Z,0.00
2023-05-14T02:21:02.534Z,0.00
2023-05-14T02:22:02.487Z,0.00
2023-05-14T02:23:02.408Z,0.00
2023-05-14T02:24:02.332Z,0.00
2023-05-14T02:25:02.250Z,0.00
2023-05-14T02:26:02.208Z,0.00
2023-05-14T02:27:02.182Z,0.00
2023-05-14T02:28:02.084Z,0.00
2023-05-14T02:29:02.004Z,0.00
2023-05-14T02:30:01.937Z,0.00
2023-05-14T02:31:01.892Z,0.00
2023-05-14T02:32:01.929Z,0.00
2023-05-14T02:33:01.821Z,0.00
2023-05-14T02:34:01.720Z,0.00
2023-05-14T02:35:01.654Z,0.00
2023-05-14T02:36:01.541Z,0.00
2023-05-14T02:37:01.518Z,0.00
2023-05-14T02:38:01.472Z,0.00
2023-05-14T02:39:01.395Z,0.00
2023-05-14T02:40:01.283Z,0.00
2023-05-14T02:41:01.289Z,0.00
2023-05-14T02:42:01.210Z,0.00
2023-05-14T02:43:01.094Z,0.00
2023-05-14T02:44:01.081Z,0.00
2023-05-14T02:45:01.037Z,0.00
2023-05-14T02:46:01.016Z,0.00
2023-05-14T02:47:00.873Z,0.00
2023-05-14T02:48:00.904Z,0.00
2023-05-14T02:49:00.749Z,0.00
2023-05-14T02:50:03.070Z,0.00
2023-05-14T02:51:00.611Z,0.00
2023-05-14T02:52:00.583Z,0.00
2023-05-14T02:53:00.496Z,0.00
2023-05-14T02:54:00.426Z,0.00
2023-05-14T02:55:00.430Z,0.00
2023-05-14T02:56:00.355Z,0.00
2023-05-14T02:57:00.263Z,0.00
2023-05-14T02:58:00.244Z,0.00
2023-05-14T02:59:00.098Z,0.00
2023-05-14T03:00:00.077Z,1.00
2023-05-14T03:01:00.277Z,0.00
2023-05-14T03:01:59.942Z,0.00
2023-05-14T03:02:59.920Z,1.00
2023-05-14T03:03:59.762Z,1.00
2023-05-14T03:04:59.674Z,1.00
2023-05-14T03:06:01.018Z,1.00
2023-05-14T03:06:59.613Z,2.00
2023-05-14T03:07:59.566Z,2.00
2023-05-14T03:08:59.441Z,2.00
2023-05-14T03:09:59.363Z,1.00
2023-05-14T03:10:59.333Z,1.00
2023-05-14T03:11:59.294Z,1.00
2023-05-14T03:12:59.262Z,2.00
2023-05-14T03:13:59.276Z,2.00
2023-05-14T03:14:59.130Z,3.00
2023-05-14T03:15:59.023Z,7.00
2023-05-14T03:16:58.919Z,6.00
2023-05-14T03:17:58.956Z,5.00
2023-05-14T03:18:58.883Z,3.00
2023-05-14T03:19:58.765Z,2.00
2023-05-14T03:20:58.674Z,3.00
2023-05-14T03:21:58.675Z,6.00
2023-05-14T03:22:58.582Z,9.00
2023-05-14T03:23:58.494Z,9.00
2023-05-14T03:24:58.538Z,10.00
2023-05-14T03:25:58.378Z,11.00
2023-05-14T03:26:58.310Z,14.00
2023-05-14T03:27:58.257Z,14.00
2023-05-14T03:28:58.146Z,17.00
2023-05-14T03:29:58.135Z,14.00
2023-05-14T03:30:58.080Z,12.00
2023-05-14T03:31:57.991Z,19.00
2023-05-14T03:32:58.008Z,25.00
2023-05-14T03:33:58.083Z,28.00
2023-05-14T03:34:57.780Z,27.00
2023-05-14T03:35:57.735Z,28.00
2023-05-14T03:36:57.665Z,30.00
2023-05-14T03:37:57.660Z,29.00
2023-05-14T03:38:57.536Z,34.00
2023-05-14T03:39:57.509Z,33.00
2023-05-14T03:40:57.486Z,33.00
2023-05-14T03:41:57.354Z,43.00
2023-05-14T03:42:57.279Z,41.00
2023-05-14T03:43:57.261Z,43.00
2023-05-14T03:44:57.203Z,42.00
2023-05-14T03:45:57.146Z,54.00
2023-05-14T03:46:57.955Z,51.00
2023-05-14T03:47:57.021Z,53.00
2023-05-14T03:48:57.060Z,62.00
2023-05-14T03:49:56.888Z,64.00
2023-05-14T03:50:56.812Z,69.00
2023-05-14T03:51:56.746Z,71.00
2023-05-14T03:52:56.672Z,73.00
2023-05-14T03:53:56.630Z,78.00
2023-05-14T03:54:56.560Z,75.00
2023-05-14T03:55:56.494Z,80.00
2023-05-14T03:56:56.435Z,85.00
2023-05-14T03:57:56.373Z,89.00
2023-05-14T03:58:56.286Z,96.00
2023-05-14T03:59:56.237Z,99.00
2023-05-14T04:00:56.128Z,100.00
2023-05-14T04:01:56.284Z,101.00
2023-05-14T04:02:56.875Z,103.00
2023-05-14T04:03:56.040Z,103.00
2023-05-14T04:04:56.518Z,106.00
2023-05-14T04:05:55.864Z,105.00
2023-05-14T04:06:55.771Z,114.00
2023-05-14T04:07:55.770Z,111.00
2023-05-14T04:08:55.710Z,120.00
2023-05-14T04:09:55.611Z,120.00
2023-05-14T04:10:55.528Z,121.00
2023-05-14T04:11:55.461Z,121.00
2023-05-14T04:12:55.465Z,122.00
2023-05-14T04:13:55.379Z,134.00
2023-05-14T04:14:55.314Z,147.00
2023-05-14T04:15:55.298Z,168.00
2023-05-14T04:16:55.193Z,170.00
2023-05-14T04:17:55.141Z,170.00
2023-05-14T04:18:55.269Z,174.00
2023-05-14T04:19:54.967Z,172.00
2023-05-14T04:20:54.925Z,172.00
2023-05-14T04:21:54.806Z,165.00
2023-05-14T04:22:54.928Z,172.00
2023-05-14T04:23:54.732Z,176.00
2023-05-14T04:24:54.638Z,185.00
2023-05-14T04:25:54.568Z,197.00
2023-05-14T04:26:54.515Z,215.00
2023-05-14T04:27:54.502Z,224.00
2023-05-14T04:28:54.491Z,239.00
2023-05-14T04:29:54.338Z,258.00
2023-05-14T04:30:54.257Z,286.00
2023-05-14T04:31:54.748Z,313.00
2023-05-14T04:32:54.181Z,301.00
2023-05-14T04:33:54.107Z,323.00
2023-05-14T04:34:54.035Z,340.00
2023-05-14T04:35:53.984Z,333.00
2023-05-14T04:36:53.911Z,356.00
2023-05-14T04:37:53.882Z,353.00
2023-05-14T04:38:53.797Z,351.00
2023-05-14T04:39:53.697Z,368.00
2023-05-14T04:40:53.646Z,380.00
2023-05-14T04:41:53.602Z,367.00
2023-05-14T04:42:53.509Z,382.00
2023-05-14T04:43:53.471Z,403.00
2023-05-14T04:44:53.445Z,399.00
2023-05-14T04:45:53.351Z,406.00
2023-05-14T04:46:53.299Z,416.00
2023-05-14T04:47:53.240Z,450.00
2023-05-14T04:48:53.123Z,479.00
2023-05-14T04:49:53.890Z,494.00
2023-05-14T04:50:53.045Z,494.00
2023-05-14T04:51:52.968Z,540.00
2023-05-14T04:52:52.897Z,531.00
2023-05-14T04:53:53.770Z,556.00
2023-05-14T04:54:52.766Z,572.00
2023-05-14T04:55:52.752Z,590.00
2023-05-14T04:56:52.639Z,591.00
2023-05-14T04:57:52.546Z,584.00
2023-05-14T04:58:52.595Z,629.00
2023-05-14T04:59:52.431Z,616.00
2023-05-14T05:00:52.437Z,600.00
2023-05-14T05:01:52.344Z,589.00
2023-05-14T05:02:52.368Z,578.00
2023-05-14T05:03:52.187Z,569.00
2023-05-14T05:04:52.188Z,548.00
2023-05-14T05:05:52.184Z,529.00
2023-05-14T05:06:52.012Z,498.00
2023-05-14T05:07:51.969Z,496.00
2023-05-14T05:08:51.869Z,487.00
2023-05-14T05:09:51.878Z,492.00
2023-05-14T05:10:51.757Z,500.00
2023-05-14T05:11:51.781Z,498.00
2023-05-14T05:12:51.670Z,511.00
2023-05-14T05:13:51.628Z,507.00
2023-05-14T05:14:51.515Z,526.00
2023-05-14T05:15:51.460Z,533.00
2023-05-14T05:16:51.529Z,524.00
2023-05-14T05:17:51.356Z,533.00
2023-05-14T05:18:51.321Z,535.00
2023-05-14T05:19:51.214Z,527.00
2023-05-14T05:20:51.133Z,536.00
2023-05-14T05:21:51.081Z,531.00
2023-05-14T05:22:51.068Z,538.00
2023-05-14T05:23:50.954Z,536.00
2023-05-14T05:24:51.436Z,534.00
2023-05-14T05:25:50.808Z,539.00
2023-05-14T05:26:50.748Z,540.00
2023-05-14T05:27:50.714Z,543.00
2023-05-14T05:28:50.681Z,538.00
2023-05-14T05:29:50.599Z,525.00
2023-05-14T05:30:50.527Z,521.00
2023-05-14T05:31:50.455Z,515.00
2023-05-14T05:32:50.503Z,516.00
2023-05-14T05:33:50.451Z,524.00
2023-05-14T05:34:50.257Z,519.00
2023-05-14T05:35:50.213Z,528.00
2023-05-14T05:36:50.132Z,538.00
2023-05-14T05:37:50.102Z,544.00
2023-05-14T05:38:49.981Z,541.00
2023-05-14T05:39:50.151Z,544.00
2023-05-14T05:40:49.938Z,556.00
2023-05-14T05:41:50.706Z,564.00
2023-05-14T05:42:49.746Z,586.00
2023-05-14T05:43:50.884Z,590.00
2023-05-14T05:44:49.645Z,603.00
2023-05-14T05:45:49.579Z,615.00
2023-05-14T05:46:49.541Z,626.00
2023-05-14T05:47:49.520Z,634.00
2023-05-14T05:48:49.370Z,647.00
2023-05-14T05:49:49.447Z,640.00
2023-05-14T05:50:49.258Z,665.00
2023-05-14T05:51:49.213Z,682.00
2023-05-14T05:52:49.105Z,678.00
2023-05-14T05:53:49.308Z,676.00
2023-05-14T05:54:49.024Z,691.00
2023-05-14T05:55:48.930Z,706.00
2023-05-14T05:56:48.854Z,707.00
2023-05-14T05:57:48.939Z,718.00
2023-05-14T05:58:48.733Z,718.00
2023-05-14T05:59:48.659Z,734.00
2023-05-14T06:00:48.636Z,768.00
2023-05-14T06:01:48.600Z,788.00
2023-05-14T06:02:48.528Z,817.00
2023-05-14T06:03:48.864Z,860.00
2023-05-14T06:04:48.435Z,904.00
2023-05-14T06:05:48.322Z,926.00
2023-05-14T06:06:48.274Z,956.00
2023-05-14T06:07:48.217Z,1001.00
2023-05-14T06:08:48.087Z,1016.00
2023-05-14T06:09:48.076Z,998.00
2023-05-14T06:10:47.994Z,986.00
2023-05-14T06:11:47.949Z,1000.00
2023-05-14T06:12:48.414Z,1033.00
2023-05-14T06:13:47.785Z,1059.00
2023-05-14T06:14:47.764Z,1091.00
2023-05-14T06:15:47.726Z,1110.00
2023-05-14T06:16:47.751Z,1133.00
2023-05-14T06:17:47.600Z,1134.00
2023-05-14T06:18:47.546Z,1163.00
2023-05-14T06:19:47.437Z,1153.00
2023-05-14T06:20:47.451Z,1179.00
2023-05-14T06:21:47.314Z,1179.00
2023-05-14T06:22:47.223Z,1198.00
2023-05-14T06:23:47.266Z,1190.00
2023-05-14T06:24:47.257Z,1224.00
2023-05-14T06:25:48.952Z,1242.00
2023-05-14T06:26:47.023Z,1298.00
2023-05-14T06:27:46.920Z,1297.00
2023-05-14T06:28:46.884Z,1347.00
2023-05-14T06:29:47.014Z,1399.00
2023-05-14T06:30:46.734Z,1373.00
2023-05-14T06:31:46.691Z,1429.00
2023-05-14T06:32:46.772Z,1428.00
2023-05-14T06:33:46.552Z,1520.00
2023-05-14T06:34:46.487Z,1529.00
2023-05-14T06:35:46.488Z,1554.00
2023-05-14T06:36:46.384Z,1564.00
2023-05-14T06:37:46.329Z,1533.00
2023-05-14T06:38:46.258Z,1496.00
2023-05-14T06:39:46.172Z,1478.00
2023-05-14T06:40:46.128Z,1481.00
2023-05-14T06:41:46.080Z,1485.00
2023-05-14T06:42:45.991Z,1531.00
2023-05-14T06:43:45.988Z,1570.00
2023-05-14T06:44:45.869Z,1605.00
2023-05-14T06:45:45.854Z,1615.00
2023-05-14T06:46:45.743Z,1599.00
2023-05-14T06:47:45.723Z,1590.00
2023-05-14T06:48:45.660Z,1573.00
2023-05-14T06:49:45.539Z,1538.00
2023-05-14T06:50:45.529Z,1575.00
2023-05-14T06:51:45.418Z,1598.00
2023-05-14T06:52:45.848Z,1615.00
2023-05-14T06:53:45.267Z,1652.00
2023-05-14T06:54:45.230Z,1672.00
2023-05-14T06:55:45.141Z,1667.00
2023-05-14T06:56:45.108Z,1709.00
2023-05-14T06:57:45.059Z,1742.00
2023-05-14T06:58:45.005Z,1750.00
2023-05-14T06:59:44.929Z,1809.00
2023-05-14T07:00:44.923Z,1869.00
2023-05-14T07:01:44.853Z,1988.00
2023-05-14T07:02:44.743Z,2082.00
2023-05-14T07:03:44.737Z,2126.00
2023-05-14T07:04:44.743Z,2186.00
2023-05-14T07:05:44.575Z,2319.00
2023-05-14T07:06:44.493Z,2363.00
2023-05-14T07:07:44.470Z,2403.00
2023-05-14T07:08:44.395Z,2418.00
2023-05-14T07:09:44.373Z,2592.00
2023-05-14T07:10:44.227Z,2734.00
2023-05-14T07:11:44.200Z,2774.00
2023-05-14T07:12:44.137Z,2850.00
2023-05-14T07:13:44.058Z,2876.00
2023-05-14T07:14:43.981Z,3008.00
2023-05-14T07:15:43.936Z,3032.00
2023-05-14T07:16:43.924Z,3147.00
2023-05-14T07:17:43.852Z,3129.00
2023-05-14T07:18:43.894Z,3111.00
2023-05-14T07:19:43.679Z,3120.00
2023-05-14T07:20:43.588Z,3138.00
2023-05-14T07:21:43.523Z,3196.00
2023-05-14T07:22:43.513Z,3196.00
2023-05-14T07:23:43.476Z,3266.00
2023-05-14T07:24:43.387Z,3460.00
2023-05-14T07:25:43.474Z,4032.00
2023-05-14T07:26:43.220Z,4361.00
2023-05-14T07:27:43.240Z,4621.00
2023-05-14T07:28:43.105Z,4528.00
2023-05-14T07:29:43.120Z,4864.00
2023-05-14T07:30:43.968Z,4785.00
2023-05-14T07:31:43.012Z,4718.00
2023-05-14T07:32:42.930Z,4499.00
2023-05-14T07:33:42.808Z,5130.00
2023-05-14T07:34:42.734Z,4590.00
2023-05-14T07:35:42.653Z,4851.00
2023-05-14T07:36:42.716Z,4678.00
2023-05-14T07:37:42.539Z,4628.00
2023-05-14T07:38:42.467Z,4523.00
2023-05-14T07:39:42.432Z,4306.00
2023-05-14T07:40:42.390Z,4316.00
2023-05-14T07:41:42.340Z,4340.00
2023-05-14T07:42:42.281Z,4424.00
2023-05-14T07:43:42.218Z,4874.00
2023-05-14T07:44:42.716Z,4748.00
2023-05-14T07:45:42.064Z,4673.00
2023-05-14T07:46:42.112Z,4608.00
2023-05-14T07:47:42.010Z,4475.00
2023-05-14T07:48:41.953Z,4571.00
2023-05-14T07:49:41.838Z,4491.00
2023-05-14T07:50:41.798Z,4432.00
2023-05-14T07:51:41.870Z,4444.00
2023-05-14T07:52:41.650Z,4534.00
2023-05-14T07:53:41.597Z,4463.00
2023-05-14T07:54:41.531Z,4729.00
2023-05-14T07:55:41.447Z,4785.00
2023-05-14T07:56:41.404Z,4886.00
2023-05-14T07:57:41.454Z,5020.00
2023-05-14T07:58:41.254Z,5473.00
2023-05-14T07:59:41.246Z,4105.00
2023-05-14T08:00:41.190Z,9148.00
2023-05-14T08:01:41.173Z,6724.00
2023-05-14T08:02:41.144Z,5973.00
2023-05-14T08:03:41.048Z,5429.00
2023-05-14T08:04:40.895Z,5259.00
2023-05-14T08:05:40.824Z,5017.00
2023-05-14T08:06:40.761Z,4717.00
2023-05-14T08:07:40.791Z,4440.00
2023-05-14T08:08:40.614Z,4084.00
2023-05-14T08:09:40.573Z,4042.00
2023-05-14T08:10:40.712Z,4717.00
2023-05-14T08:11:40.460Z,5174.00
2023-05-14T08:12:40.421Z,4862.00
2023-05-14T08:13:40.310Z,4987.00
2023-05-14T08:14:40.372Z,5192.00
2023-05-14T08:15:40.176Z,4201.00
2023-05-14T08:16:40.167Z,7176.00
2023-05-14T08:17:40.153Z,5137.00
2023-05-14T08:18:40.130Z,5306.00
2023-05-14T08:19:40.000Z,5166.00
2023-05-14T08:20:40.086Z,5018.00
2023-05-14T08:21:39.821Z,3189.00
2023-05-14T08:22:39.819Z,7947.00
2023-05-14T08:23:39.724Z,12400.00
2023-05-14T08:24:39.649Z,8445.00
2023-05-14T08:25:39.644Z,11081.00
2023-05-14T08:26:39.642Z,9018.00
2023-05-14T08:27:39.504Z,6451.00
2023-05-14T08:28:39.464Z,6952.00
2023-05-14T08:29:39.348Z,5596.00
2023-05-14T08:30:39.317Z,10771.00
2023-05-14T08:31:39.253Z,10734.00
2023-05-14T08:32:39.248Z,5992.00
2023-05-14T08:33:39.188Z,10188.00
2023-05-14T08:34:39.086Z,10452.00
2023-05-14T08:35:39.008Z,8633.00
2023-05-14T08:36:38.931Z,12301.00
2023-05-14T08:37:38.885Z,5164.00
2023-05-14T08:38:39.051Z,28451.00
2023-05-14T08:39:38.770Z,6410.00
2023-05-14T08:40:38.648Z,66344.00
2023-05-14T08:41:38.651Z,18078.00
2023-05-14T08:42:38.552Z,30564.00
2023-05-14T08:43:38.534Z,67704.00
2023-05-14T08:44:38.441Z,16569.00
2023-05-14T08:45:38.397Z,30062.00
2023-05-14T08:46:38.330Z,18053.00
2023-05-14T08:47:38.329Z,13309.00
2023-05-14T08:48:38.278Z,12145.00
2023-05-14T08:49:38.232Z,10898.00
2023-05-14T08:50:38.064Z,7123.00
2023-05-14T08:51:38.047Z,8636.00
2023-05-14T08:52:37.956Z,8048.00
2023-05-14T08:53:37.882Z,9933.00
2023-05-14T08:54:37.835Z,4818.00
2023-05-14T08:55:37.750Z,9663.00
2023-05-14T08:56:37.739Z,8080.00
2023-05-14T08:57:37.620Z,8970.00
2023-05-14T08:58:37.574Z,6838.00
2023-05-14T08:59:37.562Z,3915.00
2023-05-14T09:00:37.432Z,8875.00
2023-05-14T09:01:37.420Z,4914.00
2023-05-14T09:02:37.420Z,7671.00
2023-05-14T09:03:37.346Z,8511.00
2023-05-14T09:04:37.240Z,7076.00
2023-05-14T09:05:37.723Z,7931.00
2023-05-14T09:06:37.249Z,7791.00
2023-05-14T09:07:37.106Z,7616.00
2023-05-14T09:08:37.147Z,7359.00
2023-05-14T09:09:36.993Z,8183.00
2023-05-14T09:10:36.873Z,6706.00
2023-05-14T09:11:36.814Z,1408.00
2023-05-14T09:12:36.713Z,8519.00
2023-05-14T09:13:36.711Z,7370.00
2023-05-14T09:14:36.629Z,2346.00
2023-05-14T09:15:36.634Z,6401.00
2023-05-14T09:16:36.626Z,8179.00
2023-05-14T09:17:36.485Z,7992.00
2023-05-14T09:18:36.439Z,6979.00
2023-05-14T09:19:36.352Z,3078.00
2023-05-14T09:20:36.324Z,2968.00
2023-05-14T09:21:36.914Z,2779.00
2023-05-14T09:22:36.159Z,4846.00
2023-05-14T09:23:36.086Z,7368.00
2023-05-14T09:24:36.081Z,6850.00
2023-05-14T09:25:36.013Z,6903.00
2023-05-14T09:26:35.906Z,2698.00
2023-05-14T09:27:35.871Z,8460.00
2023-05-14T09:28:35.787Z,5325.00
2023-05-14T09:29:35.742Z,4236.00
2023-05-14T09:30:35.692Z,3394.00
2023-05-14T09:31:35.708Z,2633.00
2023-05-14T09:32:35.579Z,2147.00
2023-05-14T09:33:35.546Z,10041.00
2023-05-14T09:34:35.582Z,9084.00
2023-05-14T09:35:35.395Z,9706.00
2023-05-14T09:36:35.313Z,9111.00
2023-05-14T09:37:35.282Z,4360.00
2023-05-14T09:38:35.238Z,24724.00
2023-05-14T09:39:35.159Z,57036.00
2023-05-14T09:40:35.101Z,2244.00
2023-05-14T09:41:35.040Z,7404.00
2023-05-14T09:42:35.173Z,80492.00
2023-05-14T09:43:34.921Z,80139.00
2023-05-14T09:44:34.859Z,66646.00
2023-05-14T09:45:34.779Z,23098.00
2023-05-14T09:46:34.773Z,4312.00
2023-05-14T09:47:34.814Z,10287.00
2023-05-14T09:48:34.689Z,8031.00
2023-05-14T09:49:34.592Z,4832.00
2023-05-14T09:50:34.495Z,4910.00
2023-05-14T09:51:34.478Z,4049.00
2023-05-14T09:52:34.339Z,26251.00
2023-05-14T09:53:34.379Z,3543.00
2023-05-14T09:54:34.222Z,22898.00
2023-05-14T09:55:34.207Z,10869.00
2023-05-14T09:56:34.115Z,9350.00
2023-05-14T09:57:34.144Z,8115.00
2023-05-14T09:58:34.014Z,9520.00
2023-05-14T09:59:33.969Z,7313.00
2023-05-14T10:00:33.874Z,8174.00
2023-05-14T10:01:33.872Z,7397.00
2023-05-14T10:02:33.804Z,4090.00
2023-05-14T10:03:33.775Z,3662.00
2023-05-14T10:04:34.233Z,2974.00
2023-05-14T10:05:33.607Z,2870.00
2023-05-14T10:06:33.514Z,5630.00
2023-05-14T10:07:33.460Z,2652.00
2023-05-14T10:08:33.365Z,7819.00
2023-05-14T10:09:33.391Z,4572.00
2023-05-14T10:10:33.526Z,6514.00
2023-05-14T10:11:33.187Z,7216.00
2023-05-14T10:12:33.706Z,4282.00
2023-05-14T10:13:33.093Z,7107.00
2023-05-14T10:14:33.112Z,5237.00
2023-05-14T10:15:33.040Z,7348.00
2023-05-14T10:16:32.934Z,4666.00
2023-05-14T10:17:32.890Z,4668.00
2023-05-14T10:18:33.759Z,4154.00
2023-05-14T10:19:32.713Z,4340.00
2023-05-14T10:20:32.762Z,1337.00
2023-05-14T10:21:32.644Z,8254.00
2023-05-14T10:22:32.536Z,6968.00
2023-05-14T10:23:33.203Z,4835.00
2023-05-14T10:24:32.510Z,6505.00
2023-05-14T10:25:32.441Z,4898.00
2023-05-14T10:26:32.347Z,6474.00
2023-05-14T10:27:32.283Z,7146.00
2023-05-14T10:28:32.252Z,5921.00
2023-05-14T10:29:32.135Z,4726.00
2023-05-14T10:30:32.075Z,4610.00
2023-05-14T10:31:32.034Z,2941.00
2023-05-14T10:32:32.016Z,5773.00
2023-05-14T10:33:31.943Z,5818.00
2023-05-14T10:34:31.812Z,3472.00
2023-05-14T10:35:31.789Z,3090.00
2023-05-14T10:36:31.739Z,2592.00
2023-05-14T10:37:31.700Z,2657.00
2023-05-14T10:38:31.616Z,2617.00
2023-05-14T10:39:31.571Z,2675.00
2023-05-14T10:40:31.493Z,3194.00
2023-05-14T10:41:31.412Z,3195.00
2023-05-14T10:42:31.351Z,2903.00
2023-05-14T10:43:31.353Z,2451.00
2023-05-14T10:44:31.373Z,5941.00
2023-05-14T10:45:31.159Z,5858.00
2023-05-14T10:46:31.201Z,5856.00
2023-05-14T10:47:31.034Z,5747.00
2023-05-14T10:48:31.026Z,5523.00
2023-05-14T10:49:42.858Z,5608.00
2023-05-14T10:50:30.952Z,5624.00
2023-05-14T10:51:30.935Z,5686.00
2023-05-14T10:52:30.753Z,5214.00
2023-05-14T10:53:30.718Z,5099.00
2023-05-14T10:54:30.631Z,2978.00
2023-05-14T10:55:30.588Z,2911.00
2023-05-14T10:56:30.506Z,2361.00
2023-05-14T10:57:30.446Z,2135.00
2023-05-14T10:58:30.399Z,2085.00
2023-05-14T10:59:30.358Z,2027.00
2023-05-14T11:00:30.447Z,2057.00
2023-05-14T11:01:30.234Z,2204.00
2023-05-14T11:02:30.142Z,2285.00
2023-05-14T11:03:30.146Z,2338.00
2023-05-14T11:04:30.002Z,2402.00
2023-05-14T11:05:29.982Z,2676.00
2023-05-14T11:06:29.910Z,2803.00
2023-05-14T11:07:29.913Z,3032.00
2023-05-14T11:08:29.818Z,2863.00
2023-05-14T11:09:29.756Z,2806.00
2023-05-14T11:10:29.715Z,2967.00
2023-05-14T11:11:29.608Z,3011.00
2023-05-14T11:12:29.557Z,2269.00
2023-05-14T11:13:29.521Z,4963.00
2023-05-14T11:14:29.460Z,5170.00
2023-05-14T11:15:29.435Z,4243.00
2023-05-14T11:16:29.301Z,3836.00
2023-05-14T11:17:29.362Z,4992.00
2023-05-14T11:18:29.228Z,4117.00
2023-05-14T11:19:29.169Z,4072.00
2023-05-14T11:20:29.068Z,3464.00
2023-05-14T11:21:29.060Z,3274.00
2023-05-14T11:22:28.972Z,3312.00
2023-05-14T11:23:28.895Z,3811.00
2023-05-14T11:24:28.941Z,2574.00
2023-05-14T11:25:28.742Z,3737.00
2023-05-14T11:26:28.742Z,3668.00
2023-05-14T11:27:28.664Z,3009.00
2023-05-14T11:28:28.578Z,2989.00
2023-05-14T11:29:28.719Z,2929.00
2023-05-14T11:30:28.489Z,3833.00
2023-05-14T11:31:28.428Z,3047.00
2023-05-14T11:32:28.385Z,3246.00
2023-05-14T11:33:28.317Z,3016.00
2023-05-14T11:34:28.253Z,3128.00
2023-05-14T11:35:28.184Z,3225.00
2023-05-14T11:36:28.104Z,3250.00
2023-05-14T11:37:28.021Z,3248.00
2023-05-14T11:38:28.033Z,3887.00
2023-05-14T11:39:27.943Z,3780.00
2023-05-14T11:40:27.889Z,3243.00
2023-05-14T11:41:27.833Z,3896.00
2023-05-14T11:42:27.712Z,4025.00
2023-05-14T11:43:27.673Z,3317.00
2023-05-14T11:44:27.676Z,3131.00
2023-05-14T11:45:27.608Z,3562.00
2023-05-14T11:46:28.321Z,3038.00
2023-05-14T11:47:27.484Z,3397.00
2023-05-14T11:48:27.367Z,2589.00
2023-05-14T11:49:27.295Z,3158.00
2023-05-14T11:50:27.309Z,3149.00
2023-05-14T11:51:27.247Z,2830.00
2023-05-14T11:52:27.187Z,3757.00
2023-05-14T11:53:27.148Z,3862.00
2023-05-14T11:54:27.164Z,3892.00
2023-05-14T11:55:26.908Z,3863.00
2023-05-14T11:56:26.910Z,3758.00
2023-05-14T11:57:26.793Z,3710.00
2023-05-14T11:58:26.769Z,3610.00
2023-05-14T11:59:26.731Z,4033.00
2023-05-14T12:00:26.788Z,3581.00
2023-05-14T12:01:26.589Z,3772.00
2023-05-14T12:02:26.552Z,3745.00
2023-05-14T12:03:26.796Z,3718.00
2023-05-14T12:04:26.459Z,3721.00
2023-05-14T12:05:26.341Z,3964.00
2023-05-14T12:06:26.348Z,3984.00
2023-05-14T12:07:26.216Z,4045.00
2023-05-14T12:08:26.137Z,4251.00
2023-05-14T12:09:26.151Z,4025.00
2023-05-14T12:10:26.303Z,4639.00
2023-05-14T12:11:26.001Z,3636.00
2023-05-14T12:12:25.943Z,4827.00
2023-05-14T12:13:25.848Z,3492.00
2023-05-14T12:14:25.825Z,2501.00
2023-05-14T12:15:25.792Z,2289.00
2023-05-14T12:16:26.239Z,2094.00
2023-05-14T12:17:25.703Z,2101.00
2023-05-14T12:18:25.684Z,1977.00
2023-05-14T12:19:25.523Z,1918.00
2023-05-14T12:20:25.573Z,1821.00
2023-05-14T12:21:25.358Z,1744.00
2023-05-14T12:22:25.397Z,1730.00
2023-05-14T12:23:25.935Z,1727.00
2023-05-14T12:24:25.225Z,1732.00
2023-05-14T12:25:25.176Z,1688.00
2023-05-14T12:26:25.088Z,1656.00
2023-05-14T12:27:25.094Z,1646.00
2023-05-14T12:28:25.030Z,1660.00